sensor_id;sensor_type;location;lat;lon;timestamp;temperature;humidity
14585;DHT22;7379;51.506;11.876;2022-09-06T00:01:11;21.50;57.20
14585;DHT22;7379;51.506;11.876;2022-09-06T00:03:39;21.50;57.20
14585;DHT22;7379;51.506;11.876;2022-09-06T00:06:09;21.50;57.20
14585;DHT22;7379;51.506;11.876;2022-09-06T00:08:36;21.50;57.20
14585;DHT22;7379;51.506;11.876;2022-09-06T00:11:04;21.50;57.30
14585;DHT22;7379;51.506;11.876;2022-09-06T00:13:31;21.50;57.30
14585;DHT22;7379;51.506;11.876;2022-09-06T00:16:04;21.50;57.30
14585;DHT22;7379;51.506;11.876;2022-09-06T00:18:31;21.50;57.30
14585;DHT22;7379;51.506;11.876;2022-09-06T00:20:58;21.40;57.30
14585;DHT22;7379;51.506;11.876;2022-09-06T00:23:26;21.40;57.30
14585;DHT22;7379;51.506;11.876;2022-09-06T00:25:59;21.40;57.30
14585;DHT22;7379;51.506;11.876;2022-09-06T00:28:26;21.40;57.30
14585;DHT22;7379;51.506;11.876;2022-09-06T00:30:53;21.40;57.30
14585;DHT22;7379;51.506;11.876;2022-09-06T00:33:20;21.40;57.30
14585;DHT22;7379;51.506;11.876;2022-09-06T00:35:47;21.40;57.30
14585;DHT22;7379;51.506;11.876;2022-09-06T00:38:14;21.40;57.30
14585;DHT22;7379;51.506;11.876;2022-09-06T00:40:42;21.40;57.30
14585;DHT22;7379;51.506;11.876;2022-09-06T00:43:09;21.40;57.30
14585;DHT22;7379;51.506;11.876;2022-09-06T00:45:35;21.30;57.20
14585;DHT22;7379;51.506;11.876;2022-09-06T00:48:03;21.30;57.20
14585;DHT22;7379;51.506;11.876;2022-09-06T00:50:31;21.30;57.20
14585;DHT22;7379;51.506;11.876;2022-09-06T00:52:58;21.30;57.20
14585;DHT22;7379;51.506;11.876;2022-09-06T00:55:25;21.30;57.30
14585;DHT22;7379;51.506;11.876;2022-09-06T00:57:53;21.30;57.30
14585;DHT22;7379;51.506;11.876;2022-09-06T01:00:21;21.30;57.30
14585;DHT22;7379;51.506;11.876;2022-09-06T01:02:48;21.30;57.30
14585;DHT22;7379;51.506;11.876;2022-09-06T01:05:15;21.30;57.30
14585;DHT22;7379;51.506;11.876;2022-09-06T01:07:58;21.30;57.30
14585;DHT22;7379;51.506;11.876;2022-09-06T01:13:30;21.20;57.20
14585;DHT22;7379;51.506;11.876;2022-09-06T01:16:08;21.20;57.20
14585;DHT22;7379;51.506;11.876;2022-09-06T01:18:47;21.20;57.20
14585;DHT22;7379;51.506;11.876;2022-09-06T01:21:33;21.20;57.20
14585;DHT22;7379;51.506;11.876;2022-09-06T01:24:30;21.20;57.20
14585;DHT22;7379;51.506;11.876;2022-09-06T01:30:04;21.20;57.30
14585;DHT22;7379;51.506;11.876;2022-09-06T01:32:39;21.20;57.90
14585;DHT22;7379;51.506;11.876;2022-09-06T01:35:22;21.10;57.20
14585;DHT22;7379;51.506;11.876;2022-09-06T01:37:52;21.10;57.20
14585;DHT22;7379;51.506;11.876;2022-09-06T01:40:19;21.10;57.20
14585;DHT22;7379;51.506;11.876;2022-09-06T01:42:46;21.10;57.20
14585;DHT22;7379;51.506;11.876;2022-09-06T01:45:18;21.10;57.20
14585;DHT22;7379;51.506;11.876;2022-09-06T01:47:53;21.10;57.20
14585;DHT22;7379;51.506;11.876;2022-09-06T01:50:33;21.10;57.20
14585;DHT22;7379;51.506;11.876;2022-09-06T01:53:09;21.10;57.20
14585;DHT22;7379;51.506;11.876;2022-09-06T01:55:43;21.10;57.20
14585;DHT22;7379;51.506;11.876;2022-09-06T01:58:31;21.10;57.20
14585;DHT22;7379;51.506;11.876;2022-09-06T02:01:12;21.10;57.20
14585;DHT22;7379;51.506;11.876;2022-09-06T02:03:48;21.00;57.10
14585;DHT22;7379;51.506;11.876;2022-09-06T02:06:23;21.00;57.10
14585;DHT22;7379;51.506;11.876;2022-09-06T02:08:54;21.00;57.10
14585;DHT22;7379;51.506;11.876;2022-09-06T02:11:24;21.00;57.10
14585;DHT22;7379;51.506;11.876;2022-09-06T02:13:56;21.00;57.10
14585;DHT22;7379;51.506;11.876;2022-09-06T02:16:26;21.00;57.10
14585;DHT22;7379;51.506;11.876;2022-09-06T02:18:59;21.00;57.20
14585;DHT22;7379;51.506;11.876;2022-09-06T02:21:30;21.00;57.10
14585;DHT22;7379;51.506;11.876;2022-09-06T02:24:01;21.00;57.20
14585;DHT22;7379;51.506;11.876;2022-09-06T02:26:33;20.90;57.10
14585;DHT22;7379;51.506;11.876;2022-09-06T02:29:01;20.90;57.10
14585;DHT22;7379;51.506;11.876;2022-09-06T02:31:32;20.90;57.10
14585;DHT22;7379;51.506;11.876;2022-09-06T02:34:00;20.90;57.70
14585;DHT22;7379;51.506;11.876;2022-09-06T02:36:28;20.90;57.10
14585;DHT22;7379;51.506;11.876;2022-09-06T02:38:55;20.90;57.10
14585;DHT22;7379;51.506;11.876;2022-09-06T02:41:25;20.90;57.10
14585;DHT22;7379;51.506;11.876;2022-09-06T02:43:53;20.90;57.10
14585;DHT22;7379;51.506;11.876;2022-09-06T02:46:20;20.90;57.10
14585;DHT22;7379;51.506;11.876;2022-09-06T02:48:50;20.80;57.00
14585;DHT22;7379;51.506;11.876;2022-09-06T02:51:17;20.80;57.00
14585;DHT22;7379;51.506;11.876;2022-09-06T02:53:44;20.80;57.00
14585;DHT22;7379;51.506;11.876;2022-09-06T02:56:11;20.80;57.10
14585;DHT22;7379;51.506;11.876;2022-09-06T02:58:38;20.80;57.00
14585;DHT22;7379;51.506;11.876;2022-09-06T03:01:05;20.80;57.00
14585;DHT22;7379;51.506;11.876;2022-09-06T03:03:32;20.80;57.10
14585;DHT22;7379;51.506;11.876;2022-09-06T03:06:00;20.80;57.00
14585;DHT22;7379;51.506;11.876;2022-09-06T03:08:27;20.80;57.00
14585;DHT22;7379;51.506;11.876;2022-09-06T03:10:58;20.80;57.00
14585;DHT22;7379;51.506;11.876;2022-09-06T03:13:25;20.80;57.70
14585;DHT22;7379;51.506;11.876;2022-09-06T03:15:54;20.80;57.00
14585;DHT22;7379;51.506;11.876;2022-09-06T03:18:21;20.80;57.70
14585;DHT22;7379;51.506;11.876;2022-09-06T03:20:49;20.70;56.90
14585;DHT22;7379;51.506;11.876;2022-09-06T03:23:17;20.70;56.90
14585;DHT22;7379;51.506;11.876;2022-09-06T03:25:44;20.70;57.00
14585;DHT22;7379;51.506;11.876;2022-09-06T03:28:11;20.70;57.00
14585;DHT22;7379;51.506;11.876;2022-09-06T03:30:38;20.70;56.90
14585;DHT22;7379;51.506;11.876;2022-09-06T03:33:05;20.70;56.90
14585;DHT22;7379;51.506;11.876;2022-09-06T03:35:32;20.70;56.90
14585;DHT22;7379;51.506;11.876;2022-09-06T03:37:59;20.70;57.00
14585;DHT22;7379;51.506;11.876;2022-09-06T03:40:27;20.70;56.90
14585;DHT22;7379;51.506;11.876;2022-09-06T03:42:55;20.60;56.80
14585;DHT22;7379;51.506;11.876;2022-09-06T03:45:22;20.60;56.90
14585;DHT22;7379;51.506;11.876;2022-09-06T03:47:48;20.60;56.90
14585;DHT22;7379;51.506;11.876;2022-09-06T03:50:15;20.60;56.80
14585;DHT22;7379;51.506;11.876;2022-09-06T03:52:42;20.60;56.80
14585;DHT22;7379;51.506;11.876;2022-09-06T03:55:09;20.60;56.90
14585;DHT22;7379;51.506;11.876;2022-09-06T03:57:37;20.60;56.80
14585;DHT22;7379;51.506;11.876;2022-09-06T04:00:05;20.60;56.90
14585;DHT22;7379;51.506;11.876;2022-09-06T04:02:32;20.60;56.90
14585;DHT22;7379;51.506;11.876;2022-09-06T04:04:59;20.60;56.90
14585;DHT22;7379;51.506;11.876;2022-09-06T04:07:25;20.60;56.90
14585;DHT22;7379;51.506;11.876;2022-09-06T04:09:52;20.60;57.60
14585;DHT22;7379;51.506;11.876;2022-09-06T04:12:19;20.50;56.80
14585;DHT22;7379;51.506;11.876;2022-09-06T04:14:47;20.50;56.80
14585;DHT22;7379;51.506;11.876;2022-09-06T04:17:14;20.50;56.80
14585;DHT22;7379;51.506;11.876;2022-09-06T04:19:41;20.50;56.80
14585;DHT22;7379;51.506;11.876;2022-09-06T04:22:08;20.50;56.80
14585;DHT22;7379;51.506;11.876;2022-09-06T04:24:34;20.50;56.80
14585;DHT22;7379;51.506;11.876;2022-09-06T04:27:01;20.50;56.80
14585;DHT22;7379;51.506;11.876;2022-09-06T04:29:28;20.50;56.80
14585;DHT22;7379;51.506;11.876;2022-09-06T04:31:56;20.40;56.80
14585;DHT22;7379;51.506;11.876;2022-09-06T04:34:23;20.40;56.80
14585;DHT22;7379;51.506;11.876;2022-09-06T04:36:50;20.40;56.80
14585;DHT22;7379;51.506;11.876;2022-09-06T04:39:17;20.40;56.80
14585;DHT22;7379;51.506;11.876;2022-09-06T04:41:44;20.40;57.50
14585;DHT22;7379;51.506;11.876;2022-09-06T04:44:10;20.40;57.10
14585;DHT22;7379;51.506;11.876;2022-09-06T04:46:40;20.40;56.80
14585;DHT22;7379;51.506;11.876;2022-09-06T04:49:09;20.40;56.80
14585;DHT22;7379;51.506;11.876;2022-09-06T04:51:35;20.40;56.80
14585;DHT22;7379;51.506;11.876;2022-09-06T04:54:04;20.40;56.80
14585;DHT22;7379;51.506;11.876;2022-09-06T04:56:31;20.40;56.80
14585;DHT22;7379;51.506;11.876;2022-09-06T04:58:57;20.40;56.90
14585;DHT22;7379;51.506;11.876;2022-09-06T05:01:24;20.30;56.80
14585;DHT22;7379;51.506;11.876;2022-09-06T05:03:51;20.40;56.80
14585;DHT22;7379;51.506;11.876;2022-09-06T05:06:21;20.30;56.80
14585;DHT22;7379;51.506;11.876;2022-09-06T05:08:48;20.30;57.40
14585;DHT22;7379;51.506;11.876;2022-09-06T05:11:15;20.30;56.80
14585;DHT22;7379;51.506;11.876;2022-09-06T05:13:43;20.30;56.80
14585;DHT22;7379;51.506;11.876;2022-09-06T05:16:10;20.30;56.80
14585;DHT22;7379;51.506;11.876;2022-09-06T05:18:37;20.30;56.80
14585;DHT22;7379;51.506;11.876;2022-09-06T05:21:04;20.30;56.90
14585;DHT22;7379;51.506;11.876;2022-09-06T05:23:33;20.30;56.90
14585;DHT22;7379;51.506;11.876;2022-09-06T05:26:00;20.30;56.90
14585;DHT22;7379;51.506;11.876;2022-09-06T05:28:27;20.30;56.90
14585;DHT22;7379;51.506;11.876;2022-09-06T05:31:04;20.20;56.80
14585;DHT22;7379;51.506;11.876;2022-09-06T05:33:31;20.30;56.90
14585;DHT22;7379;51.506;11.876;2022-09-06T05:35:58;20.20;56.80
14585;DHT22;7379;51.506;11.876;2022-09-06T05:38:25;20.20;56.80
14585;DHT22;7379;51.506;11.876;2022-09-06T05:40:53;20.20;56.90
14585;DHT22;7379;51.506;11.876;2022-09-06T05:43:20;20.20;56.90
14585;DHT22;7379;51.506;11.876;2022-09-06T05:45:46;20.20;56.90
14585;DHT22;7379;51.506;11.876;2022-09-06T05:48:13;20.20;56.90
14585;DHT22;7379;51.506;11.876;2022-09-06T05:50:40;20.20;56.90
14585;DHT22;7379;51.506;11.876;2022-09-06T05:53:07;20.20;56.90
14585;DHT22;7379;51.506;11.876;2022-09-06T05:55:34;20.20;56.90
14585;DHT22;7379;51.506;11.876;2022-09-06T05:58:02;20.10;56.80
14585;DHT22;7379;51.506;11.876;2022-09-06T06:00:28;20.10;56.80
14585;DHT22;7379;51.506;11.876;2022-09-06T06:02:55;20.20;56.90
14585;DHT22;7379;51.506;11.876;2022-09-06T06:05:22;20.20;56.90
14585;DHT22;7379;51.506;11.876;2022-09-06T06:07:49;20.10;56.80
14585;DHT22;7379;51.506;11.876;2022-09-06T06:10:16;20.20;56.90
14585;DHT22;7379;51.506;11.876;2022-09-06T06:12:43;20.10;56.80
14585;DHT22;7379;51.506;11.876;2022-09-06T06:15:11;20.10;56.90
14585;DHT22;7379;51.506;11.876;2022-09-06T06:17:38;20.10;56.80
14585;DHT22;7379;51.506;11.876;2022-09-06T06:20:06;20.10;56.80
14585;DHT22;7379;51.506;11.876;2022-09-06T06:22:33;20.10;56.80
14585;DHT22;7379;51.506;11.876;2022-09-06T06:25:00;20.10;56.90
14585;DHT22;7379;51.506;11.876;2022-09-06T06:27:27;20.10;56.90
14585;DHT22;7379;51.506;11.876;2022-09-06T06:29:53;20.10;56.90
14585;DHT22;7379;51.506;11.876;2022-09-06T06:32:22;20.10;56.90
14585;DHT22;7379;51.506;11.876;2022-09-06T06:34:48;20.10;56.90
14585;DHT22;7379;51.506;11.876;2022-09-06T06:37:15;20.10;56.90
14585;DHT22;7379;51.506;11.876;2022-09-06T06:39:42;20.10;56.90
14585;DHT22;7379;51.506;11.876;2022-09-06T06:42:09;20.10;56.90
14585;DHT22;7379;51.506;11.876;2022-09-06T06:44:36;20.10;56.90
14585;DHT22;7379;51.506;11.876;2022-09-06T06:47:03;20.10;56.90
14585;DHT22;7379;51.506;11.876;2022-09-06T06:49:31;20.00;56.80
14585;DHT22;7379;51.506;11.876;2022-09-06T06:51:58;20.00;56.80
14585;DHT22;7379;51.506;11.876;2022-09-06T06:54:25;20.00;56.80
14585;DHT22;7379;51.506;11.876;2022-09-06T06:56:52;20.10;56.90
14585;DHT22;7379;51.506;11.876;2022-09-06T06:59:18;20.10;56.90
14585;DHT22;7379;51.506;11.876;2022-09-06T07:01:46;20.00;57.50
14585;DHT22;7379;51.506;11.876;2022-09-06T07:04:14;20.00;56.80
14585;DHT22;7379;51.506;11.876;2022-09-06T07:06:50;20.10;57.00
14585;DHT22;7379;51.506;11.876;2022-09-06T07:09:18;20.10;57.70
14585;DHT22;7379;51.506;11.876;2022-09-06T07:11:46;20.10;57.00
14585;DHT22;7379;51.506;11.876;2022-09-06T07:14:14;20.10;57.00
14585;DHT22;7379;51.506;11.876;2022-09-06T07:16:41;20.10;57.10
14585;DHT22;7379;51.506;11.876;2022-09-06T07:19:09;20.10;57.70
14585;DHT22;7379;51.506;11.876;2022-09-06T07:21:36;20.10;57.10
14585;DHT22;7379;51.506;11.876;2022-09-06T07:24:05;20.10;57.10
14585;DHT22;7379;51.506;11.876;2022-09-06T07:26:33;20.00;57.00
14585;DHT22;7379;51.506;11.876;2022-09-06T07:29:03;20.10;57.10
14585;DHT22;7379;51.506;11.876;2022-09-06T07:31:31;20.10;57.10
14585;DHT22;7379;51.506;11.876;2022-09-06T07:33:58;20.10;57.10
14585;DHT22;7379;51.506;11.876;2022-09-06T07:36:26;20.10;57.10
14585;DHT22;7379;51.506;11.876;2022-09-06T07:38:53;20.10;57.10
14585;DHT22;7379;51.506;11.876;2022-09-06T07:41:21;20.00;57.00
14585;DHT22;7379;51.506;11.876;2022-09-06T07:43:51;20.00;57.00
14585;DHT22;7379;51.506;11.876;2022-09-06T07:46:20;20.00;57.10
14585;DHT22;7379;51.506;11.876;2022-09-06T07:48:47;20.00;57.10
14585;DHT22;7379;51.506;11.876;2022-09-06T07:51:16;20.10;57.20
14585;DHT22;7379;51.506;11.876;2022-09-06T07:53:46;20.10;57.20
14585;DHT22;7379;51.506;11.876;2022-09-06T07:56:15;20.00;57.10
14585;DHT22;7379;51.506;11.876;2022-09-06T07:58:43;20.10;57.20
14585;DHT22;7379;51.506;11.876;2022-09-06T08:01:14;20.00;57.10
14585;DHT22;7379;51.506;11.876;2022-09-06T08:03:41;20.00;57.10
14585;DHT22;7379;51.506;11.876;2022-09-06T08:06:08;20.10;57.20
14585;DHT22;7379;51.506;11.876;2022-09-06T08:08:35;20.00;57.10
14585;DHT22;7379;51.506;11.876;2022-09-06T08:11:02;20.10;57.20
14585;DHT22;7379;51.506;11.876;2022-09-06T08:13:30;20.00;57.10
14585;DHT22;7379;51.506;11.876;2022-09-06T08:15:59;20.10;57.30
14585;DHT22;7379;51.506;11.876;2022-09-06T08:18:26;20.00;57.20
14585;DHT22;7379;51.506;11.876;2022-09-06T08:20:53;20.00;57.10
14585;DHT22;7379;51.506;11.876;2022-09-06T08:23:19;20.00;57.20
14585;DHT22;7379;51.506;11.876;2022-09-06T08:25:55;20.10;57.20
14585;DHT22;7379;51.506;11.876;2022-09-06T08:28:23;20.00;57.10
14585;DHT22;7379;51.506;11.876;2022-09-06T08:30:50;20.10;57.20
14585;DHT22;7379;51.506;11.876;2022-09-06T08:33:18;20.10;57.20
14585;DHT22;7379;51.506;11.876;2022-09-06T08:35:53;20.10;57.90
14585;DHT22;7379;51.506;11.876;2022-09-06T08:38:21;20.10;57.20
14585;DHT22;7379;51.506;11.876;2022-09-06T08:40:49;20.00;57.10
14585;DHT22;7379;51.506;11.876;2022-09-06T08:43:18;20.10;57.30
14585;DHT22;7379;51.506;11.876;2022-09-06T08:45:47;20.10;57.40
14585;DHT22;7379;51.506;11.876;2022-09-06T08:48:15;20.10;57.40
14585;DHT22;7379;51.506;11.876;2022-09-06T08:50:50;20.10;57.40
14585;DHT22;7379;51.506;11.876;2022-09-06T08:53:22;20.10;57.30
14585;DHT22;7379;51.506;11.876;2022-09-06T08:55:51;20.10;57.30
14585;DHT22;7379;51.506;11.876;2022-09-06T08:58:31;20.10;57.30
14585;DHT22;7379;51.506;11.876;2022-09-06T09:01:03;20.10;57.50
14585;DHT22;7379;51.506;11.876;2022-09-06T09:03:33;20.20;57.70
14585;DHT22;7379;51.506;11.876;2022-09-06T09:06:04;20.20;57.70
14585;DHT22;7379;51.506;11.876;2022-09-06T09:08:38;20.20;57.70
14585;DHT22;7379;51.506;11.876;2022-09-06T09:11:09;20.20;57.60
14585;DHT22;7379;51.506;11.876;2022-09-06T09:13:49;20.20;57.50
14585;DHT22;7379;51.506;11.876;2022-09-06T09:16:17;20.20;57.60
14585;DHT22;7379;51.506;11.876;2022-09-06T09:18:46;20.30;57.70
14585;DHT22;7379;51.506;11.876;2022-09-06T09:21:19;20.30;57.70
14585;DHT22;7379;51.506;11.876;2022-09-06T09:23:49;20.30;57.80
14585;DHT22;7379;51.506;11.876;2022-09-06T09:26:17;20.30;58.40
14585;DHT22;7379;51.506;11.876;2022-09-06T09:29:00;20.30;57.70
14585;DHT22;7379;51.506;11.876;2022-09-06T09:31:33;20.30;57.70
14585;DHT22;7379;51.506;11.876;2022-09-06T09:34:00;20.30;57.70
14585;DHT22;7379;51.506;11.876;2022-09-06T09:36:34;20.30;57.70
14585;DHT22;7379;51.506;11.876;2022-09-06T09:39:08;20.30;57.80
14585;DHT22;7379;51.506;11.876;2022-09-06T09:41:37;20.30;57.90
14585;DHT22;7379;51.506;11.876;2022-09-06T09:44:06;20.30;58.00
14585;DHT22;7379;51.506;11.876;2022-09-06T09:46:35;20.30;58.00
14585;DHT22;7379;51.506;11.876;2022-09-06T09:49:08;20.30;58.10
14585;DHT22;7379;51.506;11.876;2022-09-06T09:51:38;20.30;58.10
14585;DHT22;7379;51.506;11.876;2022-09-06T09:54:07;20.30;58.20
14585;DHT22;7379;51.506;11.876;2022-09-06T09:56:44;20.30;58.30
14585;DHT22;7379;51.506;11.876;2022-09-06T09:59:19;20.40;58.40
14585;DHT22;7379;51.506;11.876;2022-09-06T10:01:46;20.40;58.60
14585;DHT22;7379;51.506;11.876;2022-09-06T10:04:17;20.40;58.50
14585;DHT22;7379;51.506;11.876;2022-09-06T10:06:46;20.40;58.50
14585;DHT22;7379;51.506;11.876;2022-09-06T10:09:29;20.40;58.50
14585;DHT22;7379;51.506;11.876;2022-09-06T10:11:58;20.40;58.40
14585;DHT22;7379;51.506;11.876;2022-09-06T10:14:28;20.40;58.50
14585;DHT22;7379;51.506;11.876;2022-09-06T10:16:56;20.50;58.70
14585;DHT22;7379;51.506;11.876;2022-09-06T10:19:37;20.50;58.70
14585;DHT22;7379;51.506;11.876;2022-09-06T10:22:28;20.60;58.90
14585;DHT22;7379;51.506;11.876;2022-09-06T10:25:31;20.60;58.60
14585;DHT22;7379;51.506;11.876;2022-09-06T10:28:27;20.60;58.50
14585;DHT22;7379;51.506;11.876;2022-09-06T10:31:11;20.60;58.60
14585;DHT22;7379;51.506;11.876;2022-09-06T10:33:53;20.70;58.60
14585;DHT22;7379;51.506;11.876;2022-09-06T10:36:28;20.70;58.60
14585;DHT22;7379;51.506;11.876;2022-09-06T10:39:01;20.70;58.60
14585;DHT22;7379;51.506;11.876;2022-09-06T10:41:38;20.70;59.00
14585;DHT22;7379;51.506;11.876;2022-09-06T10:44:17;20.80;59.00
14585;DHT22;7379;51.506;11.876;2022-09-06T10:46:51;20.80;58.80
14585;DHT22;7379;51.506;11.876;2022-09-06T10:49:20;20.90;58.80
14585;DHT22;7379;51.506;11.876;2022-09-06T10:51:51;20.90;58.60
14585;DHT22;7379;51.506;11.876;2022-09-06T10:54:22;21.00;59.40
14585;DHT22;7379;51.506;11.876;2022-09-06T10:56:53;21.00;58.80
14585;DHT22;7379;51.506;11.876;2022-09-06T10:59:25;21.10;59.20
14585;DHT22;7379;51.506;11.876;2022-09-06T11:02:02;21.10;58.70
14585;DHT22;7379;51.506;11.876;2022-09-06T11:04:36;21.10;58.80
14585;DHT22;7379;51.506;11.876;2022-09-06T11:07:21;21.10;58.90
14585;DHT22;7379;51.506;11.876;2022-09-06T11:09:54;21.20;58.80
14585;DHT22;7379;51.506;11.876;2022-09-06T11:12:28;21.20;58.60
14585;DHT22;7379;51.506;11.876;2022-09-06T11:14:56;21.20;58.50
14585;DHT22;7379;51.506;11.876;2022-09-06T11:17:37;21.20;58.90
14585;DHT22;7379;51.506;11.876;2022-09-06T11:20:10;21.20;58.90
14585;DHT22;7379;51.506;11.876;2022-09-06T11:22:52;21.20;58.60
14585;DHT22;7379;51.506;11.876;2022-09-06T11:28:28;21.20;58.80
14585;DHT22;7379;51.506;11.876;2022-09-06T11:30:57;21.20;58.80
14585;DHT22;7379;51.506;11.876;2022-09-06T11:33:27;21.10;59.00
14585;DHT22;7379;51.506;11.876;2022-09-06T11:36:15;21.20;59.60
14585;DHT22;7379;51.506;11.876;2022-09-06T11:38:53;21.20;59.30
14585;DHT22;7379;51.506;11.876;2022-09-06T11:41:27;21.20;59.40
14585;DHT22;7379;51.506;11.876;2022-09-06T11:43:55;21.20;59.90
14585;DHT22;7379;51.506;11.876;2022-09-06T11:49:37;21.30;59.50
14585;DHT22;7379;51.506;11.876;2022-09-06T11:55:09;21.30;60.10
14585;DHT22;7379;51.506;11.876;2022-09-06T11:57:40;21.40;59.60
14585;DHT22;7379;51.506;11.876;2022-09-06T12:00:17;21.40;60.10
14585;DHT22;7379;51.506;11.876;2022-09-06T12:02:45;21.50;60.60
14585;DHT22;7379;51.506;11.876;2022-09-06T12:05:18;21.50;59.90
14585;DHT22;7379;51.506;11.876;2022-09-06T12:08:23;21.50;60.00
14585;DHT22;7379;51.506;11.876;2022-09-06T12:11:02;21.50;60.00
14585;DHT22;7379;51.506;11.876;2022-09-06T12:13:52;21.50;60.20
14585;DHT22;7379;51.506;11.876;2022-09-06T12:16:20;21.50;60.00
14585;DHT22;7379;51.506;11.876;2022-09-06T12:18:57;21.50;60.00
14585;DHT22;7379;51.506;11.876;2022-09-06T12:21:33;21.50;59.90
14585;DHT22;7379;51.506;11.876;2022-09-06T12:24:00;21.60;60.60
14585;DHT22;7379;51.506;11.876;2022-09-06T12:26:46;21.60;60.00
14585;DHT22;7379;51.506;11.876;2022-09-06T12:29:23;21.60;60.00
14585;DHT22;7379;51.506;11.876;2022-09-06T12:31:51;21.60;60.30
14585;DHT22;7379;51.506;11.876;2022-09-06T12:34:21;21.70;60.50
14585;DHT22;7379;51.506;11.876;2022-09-06T12:36:54;21.70;60.70
14585;DHT22;7379;51.506;11.876;2022-09-06T12:39:22;21.80;60.50
14585;DHT22;7379;51.506;11.876;2022-09-06T12:41:51;21.80;60.30
14585;DHT22;7379;51.506;11.876;2022-09-06T12:44:30;21.90;60.00
14585;DHT22;7379;51.506;11.876;2022-09-06T12:47:06;22.00;60.40
14585;DHT22;7379;51.506;11.876;2022-09-06T12:49:35;22.20;60.40
14585;DHT22;7379;51.506;11.876;2022-09-06T12:52:07;22.20;59.50
14585;DHT22;7379;51.506;11.876;2022-09-06T12:54:42;22.20;59.40
14585;DHT22;7379;51.506;11.876;2022-09-06T12:57:16;22.30;59.50
14585;DHT22;7379;51.506;11.876;2022-09-06T12:59:49;22.30;59.60
14585;DHT22;7379;51.506;11.876;2022-09-06T13:02:22;22.40;59.30
14585;DHT22;7379;51.506;11.876;2022-09-06T13:04:53;22.50;59.90
14585;DHT22;7379;51.506;11.876;2022-09-06T13:07:21;22.50;59.10
14585;DHT22;7379;51.506;11.876;2022-09-06T13:09:53;22.50;58.90
14585;DHT22;7379;51.506;11.876;2022-09-06T13:12:25;22.50;58.90
14585;DHT22;7379;51.506;11.876;2022-09-06T13:14:54;22.60;58.80
14585;DHT22;7379;51.506;11.876;2022-09-06T13:17:24;22.60;58.80
14585;DHT22;7379;51.506;11.876;2022-09-06T13:19:51;22.60;58.70
14585;DHT22;7379;51.506;11.876;2022-09-06T13:22:42;22.60;58.70
14585;DHT22;7379;51.506;11.876;2022-09-06T13:25:15;22.60;58.60
14585;DHT22;7379;51.506;11.876;2022-09-06T13:27:42;22.70;58.90
14585;DHT22;7379;51.506;11.876;2022-09-06T13:30:31;22.70;58.50
14585;DHT22;7379;51.506;11.876;2022-09-06T13:32:59;22.70;58.10
14585;DHT22;7379;51.506;11.876;2022-09-06T13:35:29;22.80;57.90
14585;DHT22;7379;51.506;11.876;2022-09-06T13:38:21;22.90;57.70
14585;DHT22;7379;51.506;11.876;2022-09-06T13:40:55;23.00;57.30
14585;DHT22;7379;51.506;11.876;2022-09-06T13:43:23;23.00;57.40
14585;DHT22;7379;51.506;11.876;2022-09-06T13:46:03;23.00;57.10
14585;DHT22;7379;51.506;11.876;2022-09-06T13:48:30;23.00;56.80
14585;DHT22;7379;51.506;11.876;2022-09-06T13:50:57;23.00;56.70
14585;DHT22;7379;51.506;11.876;2022-09-06T13:53:24;23.00;56.70
14585;DHT22;7379;51.506;11.876;2022-09-06T13:55:51;23.10;56.60
14585;DHT22;7379;51.506;11.876;2022-09-06T13:58:18;23.10;56.40
14585;DHT22;7379;51.506;11.876;2022-09-06T14:00:46;23.10;56.40
14585;DHT22;7379;51.506;11.876;2022-09-06T14:03:20;23.10;56.30
14585;DHT22;7379;51.506;11.876;2022-09-06T14:05:47;23.10;56.50
14585;DHT22;7379;51.506;11.876;2022-09-06T14:08:14;23.10;56.50
14585;DHT22;7379;51.506;11.876;2022-09-06T14:10:41;23.10;57.20
14585;DHT22;7379;51.506;11.876;2022-09-06T14:13:08;23.10;56.10
14585;DHT22;7379;51.506;11.876;2022-09-06T14:15:36;23.10;56.30
14585;DHT22;7379;51.506;11.876;2022-09-06T14:18:04;23.10;56.20
14585;DHT22;7379;51.506;11.876;2022-09-06T14:20:32;23.10;56.10
14585;DHT22;7379;51.506;11.876;2022-09-06T14:22:59;23.10;55.90
14585;DHT22;7379;51.506;11.876;2022-09-06T14:25:26;23.20;55.70
14585;DHT22;7379;51.506;11.876;2022-09-06T14:27:53;23.20;55.80
14585;DHT22;7379;51.506;11.876;2022-09-06T14:30:20;23.20;55.70
14585;DHT22;7379;51.506;11.876;2022-09-06T14:32:46;23.20;55.50
14585;DHT22;7379;51.506;11.876;2022-09-06T14:35:13;23.20;55.80
14585;DHT22;7379;51.506;11.876;2022-09-06T14:37:41;23.20;55.70
14585;DHT22;7379;51.506;11.876;2022-09-06T14:40:09;23.20;55.60
14585;DHT22;7379;51.506;11.876;2022-09-06T14:42:36;23.20;55.60
14585;DHT22;7379;51.506;11.876;2022-09-06T14:45:04;23.20;55.20
14585;DHT22;7379;51.506;11.876;2022-09-06T14:47:31;23.30;55.00
14585;DHT22;7379;51.506;11.876;2022-09-06T14:49:58;23.30;54.90
14585;DHT22;7379;51.506;11.876;2022-09-06T14:52:25;23.30;54.90
14585;DHT22;7379;51.506;11.876;2022-09-06T14:54:53;23.40;54.60
14585;DHT22;7379;51.506;11.876;2022-09-06T14:57:20;23.60;54.40
14585;DHT22;7379;51.506;11.876;2022-09-06T14:59:47;23.60;54.30
14585;DHT22;7379;51.506;11.876;2022-09-06T15:02:13;23.70;54.10
14585;DHT22;7379;51.506;11.876;2022-09-06T15:04:40;23.80;54.00
14585;DHT22;7379;51.506;11.876;2022-09-06T15:07:07;23.80;53.80
14585;DHT22;7379;51.506;11.876;2022-09-06T15:09:35;23.80;53.70
14585;DHT22;7379;51.506;11.876;2022-09-06T15:12:03;23.80;53.60
14585;DHT22;7379;51.506;11.876;2022-09-06T15:14:30;23.80;53.60
14585;DHT22;7379;51.506;11.876;2022-09-06T15:16:58;23.80;53.80
14585;DHT22;7379;51.506;11.876;2022-09-06T15:19:28;23.90;53.60
14585;DHT22;7379;51.506;11.876;2022-09-06T15:21:56;24.00;53.30
14585;DHT22;7379;51.506;11.876;2022-09-06T15:24:23;24.10;53.00
14585;DHT22;7379;51.506;11.876;2022-09-06T15:26:50;24.10;53.10
14585;DHT22;7379;51.506;11.876;2022-09-06T15:29:18;24.20;53.50
14585;DHT22;7379;51.506;11.876;2022-09-06T15:31:47;24.20;52.50
14585;DHT22;7379;51.506;11.876;2022-09-06T15:34:16;24.30;52.10
14585;DHT22;7379;51.506;11.876;2022-09-06T15:36:43;24.40;51.90
14585;DHT22;7379;51.506;11.876;2022-09-06T15:39:10;24.50;51.50
14585;DHT22;7379;51.506;11.876;2022-09-06T15:41:37;24.70;51.10
14585;DHT22;7379;51.506;11.876;2022-09-06T15:44:07;24.60;51.00
14585;DHT22;7379;51.506;11.876;2022-09-06T15:46:42;24.60;50.90
14585;DHT22;7379;51.506;11.876;2022-09-06T15:49:12;24.50;50.90
14585;DHT22;7379;51.506;11.876;2022-09-06T15:51:39;24.40;50.80
14585;DHT22;7379;51.506;11.876;2022-09-06T15:54:07;24.30;50.80
14585;DHT22;7379;51.506;11.876;2022-09-06T15:56:35;24.20;50.80
14585;DHT22;7379;51.506;11.876;2022-09-06T15:59:02;24.20;50.90
14585;DHT22;7379;51.506;11.876;2022-09-06T16:01:29;24.20;51.10
14585;DHT22;7379;51.506;11.876;2022-09-06T16:04:00;24.20;50.90